createdAt,value
2024-01-25T00:00:40.019Z,4.77
2024-01-25T00:03:08.004Z,5.87
2024-01-25T00:05:37.603Z,4.70
2024-01-25T00:08:06.332Z,4.50
2024-01-25T00:10:34.276Z,4.63
2024-01-25T00:13:02.711Z,5.10
2024-01-25T00:15:31.802Z,6.07
2024-01-25T00:18:00.019Z,5.60
2024-01-25T00:20:28.175Z,5.20
2024-01-25T00:22:57.615Z,5.13
2024-01-25T00:25:25.643Z,4.67
2024-01-25T00:27:54.220Z,5.17
2024-01-25T00:30:22.221Z,5.73
2024-01-25T00:32:50.948Z,5.17
2024-01-25T00:35:20.732Z,6.47
2024-01-25T00:37:49.722Z,6.97
2024-01-25T00:40:20.248Z,5.47
2024-01-25T00:42:54.439Z,5.33
2024-01-25T00:45:23.929Z,5.30
2024-01-25T00:47:54.001Z,5.00
2024-01-25T00:50:25.301Z,5.27
2024-01-25T00:52:54.136Z,5.83
2024-01-25T00:55:24.598Z,5.83
2024-01-25T00:57:53.870Z,4.87
2024-01-25T01:00:23.310Z,5.87
2024-01-25T01:02:55.326Z,4.77
2024-01-25T01:05:24.413Z,5.37
2024-01-25T01:07:53.226Z,5.50
2024-01-25T01:10:21.524Z,6.20
2024-01-25T01:12:50.983Z,5.27
2024-01-25T01:15:19.197Z,4.57
2024-01-25T01:17:47.557Z,4.87
2024-01-25T01:20:16.306Z,5.40
2024-01-25T01:22:44.749Z,4.97
2024-01-25T01:25:12.862Z,5.53
2024-01-25T01:27:40.906Z,5.60
2024-01-25T01:30:11.565Z,5.17
2024-01-25T01:32:39.607Z,4.47
2024-01-25T01:35:08.583Z,5.13
2024-01-25T01:37:36.714Z,5.10
2024-01-25T01:40:05.067Z,5.33
2024-01-25T01:42:33.964Z,5.20
2024-01-25T01:45:02.019Z,5.00
2024-01-25T01:47:34.390Z,5.73
2024-01-25T01:50:03.666Z,6.00
2024-01-25T01:52:33.278Z,4.67
2024-01-25T01:55:01.590Z,5.13
2024-01-25T01:57:30.838Z,5.17
2024-01-25T02:00:01.311Z,5.97
2024-01-25T02:02:30.689Z,5.07
2024-01-25T02:05:00.680Z,5.23
2024-01-25T02:07:28.662Z,5.57
2024-01-25T02:09:56.693Z,4.77
2024-01-25T02:12:24.738Z,5.77
2024-01-25T02:14:52.678Z,6.43
2024-01-25T02:17:20.590Z,7.07
2024-01-25T02:19:48.579Z,5.97
2024-01-25T02:22:19.934Z,7.10
2024-01-25T02:24:48.036Z,7.13
2024-01-25T02:27:17.828Z,6.53
2024-01-25T02:29:46.235Z,7.77
2024-01-25T02:32:14.794Z,7.47
2024-01-25T02:34:43.262Z,7.10
2024-01-25T02:37:13.275Z,6.90
2024-01-25T02:39:42.973Z,6.57
2024-01-25T02:42:11.314Z,6.07
2024-01-25T02:44:39.567Z,6.00
2024-01-25T02:47:07.507Z,5.57
2024-01-25T02:49:35.719Z,4.93
2024-01-25T02:52:04.396Z,5.03
2024-01-25T02:54:37.945Z,6.60
2024-01-25T02:57:07.898Z,4.70
2024-01-25T02:59:35.745Z,5.20
2024-01-25T03:02:03.782Z,4.83
2024-01-25T03:04:33.497Z,5.40
2024-01-25T03:07:01.804Z,5.17
2024-01-25T03:09:32.225Z,4.87
2024-01-25T03:12:00.339Z,4.73
2024-01-25T03:14:32.021Z,5.53
2024-01-25T03:17:00.082Z,5.40
2024-01-25T03:19:31.987Z,5.13
2024-01-25T03:22:02.040Z,5.00
2024-01-25T03:24:31.784Z,5.00
2024-01-25T03:26:59.711Z,5.33
2024-01-25T03:29:28.998Z,6.17
2024-01-25T03:31:57.673Z,3.43
2024-01-25T03:34:25.807Z,4.57
2024-01-25T03:36:55.454Z,5.90
2024-01-25T03:39:23.499Z,6.10
2024-01-25T03:41:51.894Z,4.27
2024-01-25T03:44:19.779Z,4.70
2024-01-25T03:46:49.768Z,5.53
2024-01-25T03:49:18.711Z,5.37
2024-01-25T03:51:47.292Z,4.53
2024-01-25T03:54:15.778Z,3.90
2024-01-25T03:56:44.443Z,5.17
2024-01-25T03:59:14.969Z,4.83
2024-01-25T04:01:48.554Z,5.27
2024-01-25T04:04:19.783Z,4.20
2024-01-25T04:06:48.266Z,4.67
2024-01-25T04:09:18.340Z,4.37
2024-01-25T04:11:46.819Z,3.50
2024-01-25T04:14:16.933Z,5.23
2024-01-25T04:16:47.611Z,3.80
2024-01-25T04:19:17.254Z,4.53
2024-01-25T04:21:45.284Z,4.40
2024-01-25T04:24:13.187Z,5.07
2024-01-25T04:26:41.452Z,5.00
2024-01-25T04:29:09.384Z,4.47
2024-01-25T04:31:37.263Z,5.47
2024-01-25T04:34:05.252Z,10.23
2024-01-25T04:36:34.618Z,10.07
2024-01-25T04:39:02.717Z,7.73
2024-01-25T04:41:34.530Z,6.40
2024-01-25T04:44:02.634Z,8.10
2024-01-25T04:46:36.520Z,8.43
2024-01-25T04:49:04.538Z,7.50
2024-01-25T04:51:34.624Z,8.70
2024-01-25T04:54:03.525Z,8.60
2024-01-25T04:56:32.589Z,8.93
2024-01-25T04:59:00.480Z,9.13
2024-01-25T05:01:28.631Z,10.23
2024-01-25T05:03:56.758Z,9.60
2024-01-25T05:06:24.750Z,10.17
2024-01-25T05:08:54.030Z,8.87
2024-01-25T05:11:21.907Z,8.27
2024-01-25T05:13:49.769Z,9.83
2024-01-25T05:16:18.580Z,6.53
2024-01-25T05:18:47.238Z,6.70
2024-01-25T05:21:15.928Z,5.40
2024-01-25T05:23:43.922Z,7.27
2024-01-25T05:26:13.883Z,9.30
2024-01-25T05:28:41.842Z,10.40
2024-01-25T05:31:13.983Z,12.13
2024-01-25T05:33:42.294Z,16.70
2024-01-25T05:36:10.771Z,14.33
2024-01-25T05:38:38.733Z,15.53
2024-01-25T05:41:06.596Z,13.90
2024-01-25T05:43:36.102Z,12.93
2024-01-25T05:46:05.320Z,12.30
2024-01-25T05:48:33.676Z,10.60
2024-01-25T05:51:01.728Z,8.10
2024-01-25T05:53:32.043Z,8.70
2024-01-25T05:56:00.500Z,9.47
2024-01-25T05:58:28.519Z,5.87
2024-01-25T06:00:58.006Z,7.73
2024-01-25T06:03:26.010Z,9.60
2024-01-25T06:05:54.087Z,11.50
2024-01-25T06:08:22.153Z,9.27
2024-01-25T06:10:51.498Z,8.00
2024-01-25T06:13:19.537Z,7.13
2024-01-25T06:15:47.599Z,8.27
2024-01-25T06:18:17.392Z,7.27
2024-01-25T06:20:45.923Z,6.83
2024-01-25T06:23:14.090Z,7.03
2024-01-25T06:25:42.318Z,6.20
2024-01-25T06:28:10.289Z,6.53
2024-01-25T06:30:38.266Z,5.10
2024-01-25T06:33:06.988Z,5.43
2024-01-25T06:35:36.396Z,4.93
2024-01-25T06:38:04.322Z,4.63
2024-01-25T06:40:33.335Z,5.20
2024-01-25T06:43:01.363Z,5.70
2024-01-25T06:45:31.530Z,5.97
2024-01-25T06:47:59.586Z,5.53
2024-01-25T06:50:27.932Z,5.87
2024-01-25T06:52:57.779Z,5.77
2024-01-25T06:55:25.825Z,4.20
2024-01-25T06:57:53.887Z,4.67
2024-01-25T07:00:22.502Z,6.10
2024-01-25T07:02:50.935Z,5.00
2024-01-25T07:05:20.123Z,5.40
2024-01-25T07:07:48.307Z,4.53
2024-01-25T07:10:18.322Z,5.83
2024-01-25T07:12:46.602Z,5.83
2024-01-25T07:15:16.536Z,6.00
2024-01-25T07:17:44.832Z,4.73
2024-01-25T07:20:13.847Z,7.03
2024-01-25T07:22:41.895Z,5.73
2024-01-25T07:25:10.346Z,6.60
2024-01-25T07:27:39.684Z,5.47
2024-01-25T07:30:10.151Z,5.77
2024-01-25T07:32:39.199Z,5.63
2024-01-25T07:35:07.999Z,5.70
2024-01-25T07:37:38.188Z,5.23
2024-01-25T07:40:07.820Z,6.47
2024-01-25T07:42:35.832Z,6.47
2024-01-25T07:45:06.099Z,6.50
2024-01-25T07:47:34.645Z,6.23
2024-01-25T07:50:03.253Z,5.47
2024-01-25T07:52:33.464Z,6.07
2024-01-25T07:55:02.978Z,6.13
2024-01-25T07:57:35.448Z,7.03
2024-01-25T08:00:06.210Z,5.87
2024-01-25T08:02:34.424Z,5.90
2024-01-25T08:05:02.697Z,5.53
2024-01-25T08:07:35.307Z,5.73
2024-01-25T08:10:03.872Z,5.47
2024-01-25T08:12:33.607Z,4.87
2024-01-25T08:15:01.948Z,4.97
2024-01-25T08:17:32.803Z,5.23
2024-01-25T08:20:01.241Z,4.93
2024-01-25T08:22:31.867Z,5.63
2024-01-25T08:25:00.334Z,5.13
2024-01-25T08:27:28.596Z,5.40
2024-01-25T08:29:56.889Z,6.43
2024-01-25T08:32:25.253Z,5.47
2024-01-25T08:34:56.239Z,5.60
2024-01-25T08:37:25.101Z,5.10
2024-01-25T08:39:53.533Z,5.43
2024-01-25T08:42:21.914Z,6.17
2024-01-25T08:44:51.036Z,6.27
2024-01-25T08:47:20.411Z,5.03
2024-01-25T08:49:48.673Z,6.10
2024-01-25T08:52:18.533Z,6.50
2024-01-25T08:54:47.038Z,6.50
2024-01-25T08:57:16.745Z,6.40
2024-01-25T08:59:45.025Z,5.57
2024-01-25T09:02:13.501Z,5.03
2024-01-25T09:04:44.437Z,5.50
2024-01-25T09:07:13.129Z,5.80
2024-01-25T09:09:42.805Z,6.23
2024-01-25T09:12:12.726Z,6.07
2024-01-25T09:14:41.165Z,5.40
2024-01-25T09:17:10.501Z,4.90
2024-01-25T09:19:39.157Z,5.57
2024-01-25T09:22:08.636Z,5.63
2024-01-25T09:24:37.439Z,6.60
2024-01-25T09:27:07.600Z,5.80
2024-01-25T09:29:35.857Z,5.30
2024-01-25T09:32:04.189Z,5.50
2024-01-25T09:34:34.595Z,6.10
2024-01-25T09:37:04.005Z,5.73
2024-01-25T09:39:36.596Z,5.97
2024-01-25T09:42:07.744Z,6.27
2024-01-25T09:44:36.066Z,5.70
2024-01-25T09:47:06.567Z,5.37
2024-01-25T09:49:35.080Z,5.23
2024-01-25T09:52:04.859Z,6.60
2024-01-25T09:54:36.485Z,6.50
2024-01-25T09:57:06.501Z,5.87
2024-01-25T09:59:36.265Z,6.87
2024-01-25T10:02:08.512Z,6.90
2024-01-25T10:04:36.819Z,7.27
2024-01-25T10:07:05.340Z,5.67
2024-01-25T10:09:40.865Z,6.90
2024-01-25T10:12:17.605Z,6.27
2024-01-25T10:14:48.934Z,6.23
2024-01-25T10:17:18.413Z,6.57
2024-01-25T10:19:47.150Z,6.87
2024-01-25T10:22:16.841Z,6.60
2024-01-25T10:24:46.403Z,6.60
2024-01-25T10:27:14.862Z,6.00
2024-01-25T10:29:42.858Z,6.90
2024-01-25T10:32:12.240Z,7.57
2024-01-25T10:34:42.046Z,6.87
2024-01-25T10:37:10.467Z,6.90
2024-01-25T10:39:39.206Z,6.43
2024-01-25T10:42:07.601Z,5.90
2024-01-25T10:44:35.642Z,6.40
2024-01-25T10:47:04.126Z,6.20
2024-01-25T10:49:37.792Z,6.10
2024-01-25T10:52:07.425Z,7.27
2024-01-25T10:54:35.842Z,5.87
2024-01-25T10:57:03.862Z,7.53
2024-01-25T10:59:35.927Z,6.57
2024-01-25T11:02:04.283Z,6.37
2024-01-25T11:04:36.535Z,6.77
2024-01-25T11:07:09.971Z,6.07
2024-01-25T11:09:38.958Z,6.60
2024-01-25T11:12:14.449Z,5.53
2024-01-25T11:14:42.567Z,6.90
2024-01-25T11:17:21.904Z,6.27
2024-01-25T11:19:55.357Z,6.40
2024-01-25T11:22:23.472Z,7.50
2024-01-25T11:24:52.343Z,6.70
2024-01-25T11:27:21.548Z,7.13
2024-01-25T11:29:50.073Z,7.37
2024-01-25T11:32:18.077Z,6.83
2024-01-25T11:34:46.105Z,6.73
2024-01-25T11:37:19.215Z,6.90
2024-01-25T11:39:47.323Z,6.93
2024-01-25T11:42:15.441Z,6.77
2024-01-25T11:44:43.366Z,7.13
2024-01-25T11:47:11.591Z,7.23
2024-01-25T11:49:39.661Z,6.50
2024-01-25T11:52:08.804Z,8.40
2024-01-25T11:54:38.101Z,7.30
2024-01-25T11:57:06.733Z,6.47
2024-01-25T11:59:35.465Z,6.87
2024-01-25T12:02:03.616Z,6.83
2024-01-25T12:04:36.953Z,7.60
2024-01-25T12:07:06.574Z,7.57
2024-01-25T12:09:34.726Z,8.57
2024-01-25T12:12:04.506Z,8.67
2024-01-25T12:14:33.442Z,8.80
2024-01-25T12:17:01.384Z,7.70
2024-01-25T12:19:31.863Z,7.60
2024-01-25T12:22:00.267Z,7.60
2024-01-25T12:24:28.292Z,7.40
2024-01-25T12:26:57.089Z,7.73
2024-01-25T12:29:26.462Z,7.67
2024-01-25T12:31:54.419Z,8.93
2024-01-25T12:34:23.199Z,7.63
2024-01-25T12:36:53.724Z,7.90
2024-01-25T12:39:21.825Z,7.40
2024-01-25T12:41:50.034Z,7.83
2024-01-25T12:44:20.292Z,7.83
2024-01-25T12:46:49.801Z,7.63
2024-01-25T12:49:18.021Z,7.63
2024-01-25T12:51:46.256Z,7.67
2024-01-25T12:54:14.435Z,9.00
2024-01-25T12:56:42.686Z,8.07
2024-01-25T12:59:12.175Z,8.47
2024-01-25T13:01:40.371Z,7.93
2024-01-25T13:04:09.982Z,7.97
2024-01-25T13:06:38.915Z,7.27
2024-01-25T13:09:07.003Z,7.90
2024-01-25T13:11:34.858Z,8.07
2024-01-25T13:14:02.776Z,9.27
2024-01-25T13:16:33.177Z,8.77
2024-01-25T13:19:01.231Z,8.20
2024-01-25T13:21:31.897Z,9.27
2024-01-25T13:24:01.172Z,9.03
2024-01-25T13:26:30.736Z,7.90
2024-01-25T13:28:58.844Z,8.40
2024-01-25T13:31:26.764Z,8.20
2024-01-25T13:33:54.818Z,8.70
2024-01-25T13:36:23.031Z,8.80
2024-01-25T13:38:52.716Z,10.07
2024-01-25T13:41:20.983Z,9.27
2024-01-25T13:43:48.918Z,8.47
2024-01-25T13:46:18.476Z,9.93
2024-01-25T13:48:48.025Z,9.43
2024-01-25T13:51:16.156Z,9.80
2024-01-25T13:53:44.136Z,10.37
2024-01-25T13:56:13.464Z,9.17
2024-01-25T13:58:41.347Z,9.27
2024-01-25T14:01:09.360Z,9.23
2024-01-25T14:03:37.815Z,8.87
2024-01-25T14:06:06.398Z,8.80
2024-01-25T14:08:34.605Z,10.23
2024-01-25T14:11:02.993Z,10.10
2024-01-25T14:13:34.918Z,9.57
2024-01-25T14:16:03.752Z,10.93
2024-01-25T14:18:39.183Z,11.13
2024-01-25T14:21:07.680Z,10.30
2024-01-25T14:23:38.492Z,10.30
2024-01-25T14:26:06.671Z,9.87
2024-01-25T14:28:36.036Z,10.23
2024-01-25T14:31:04.187Z,11.43
2024-01-25T14:33:33.613Z,11.13
2024-01-25T14:36:03.900Z,10.93
2024-01-25T14:38:34.932Z,12.10
2024-01-25T14:41:03.207Z,10.33
2024-01-25T14:43:32.737Z,11.00
2024-01-25T14:46:02.279Z,10.80
2024-01-25T14:48:33.790Z,10.07
2024-01-25T14:51:02.147Z,10.87
2024-01-25T14:53:31.950Z,10.27
2024-01-25T14:56:00.082Z,10.87
2024-01-25T14:58:28.556Z,10.60
2024-01-25T15:00:56.655Z,10.37
2024-01-25T15:03:26.456Z,10.87
2024-01-25T15:05:57.974Z,9.73
2024-01-25T15:08:26.226Z,11.40
2024-01-25T15:10:55.076Z,9.77
2024-01-25T15:13:23.518Z,11.13
2024-01-25T15:15:52.376Z,10.33
2024-01-25T15:18:21.557Z,9.53
2024-01-25T15:20:52.339Z,10.60
2024-01-25T15:23:20.569Z,10.23
2024-01-25T15:25:48.788Z,10.27
2024-01-25T15:28:20.909Z,11.60
2024-01-25T15:30:51.592Z,11.90
2024-01-25T15:33:20.406Z,11.27
2024-01-25T15:35:49.815Z,10.67
2024-01-25T15:38:19.192Z,11.20
2024-01-25T15:40:47.072Z,10.83
2024-01-25T15:43:15.220Z,11.97
2024-01-25T15:45:43.169Z,12.23
2024-01-25T15:48:11.186Z,11.97
2024-01-25T15:50:40.553Z,12.60
2024-01-25T15:53:09.842Z,13.67
2024-01-25T15:55:37.720Z,13.50
2024-01-25T15:58:05.752Z,13.10
2024-01-25T16:00:33.808Z,14.57
2024-01-25T16:03:02.277Z,13.53
2024-01-25T16:05:33.101Z,13.83
2024-01-25T16:08:01.150Z,12.77
2024-01-25T16:10:33.008Z,15.00
2024-01-25T16:13:01.187Z,13.43
2024-01-25T16:15:30.855Z,12.80
2024-01-25T16:17:58.924Z,13.93
2024-01-25T16:20:26.964Z,13.13
2024-01-25T16:22:55.005Z,14.10
2024-01-25T16:25:22.975Z,14.33
2024-01-25T16:27:54.562Z,14.43
2024-01-25T16:30:22.610Z,13.83
2024-01-25T16:32:53.487Z,14.03
2024-01-25T16:35:21.484Z,14.37
2024-01-25T16:37:49.739Z,14.93
2024-01-25T16:40:18.077Z,12.63
2024-01-25T16:42:45.990Z,13.20
2024-01-25T16:45:15.555Z,14.10
2024-01-25T16:47:43.587Z,14.47
2024-01-25T16:50:12.161Z,13.50
2024-01-25T16:52:40.189Z,14.43
2024-01-25T16:55:09.649Z,14.83
2024-01-25T16:57:41.230Z,14.87
2024-01-25T17:00:10.133Z,14.63
2024-01-25T17:02:39.395Z,15.27
2024-01-25T17:05:07.610Z,15.63
2024-01-25T17:07:35.709Z,14.90
2024-01-25T17:10:04.886Z,15.63
2024-01-25T17:12:33.425Z,14.30
2024-01-25T17:15:01.412Z,15.77
2024-01-25T17:17:33.931Z,16.97
2024-01-25T17:20:04.939Z,15.73
2024-01-25T17:22:33.396Z,16.63
2024-01-25T17:25:01.735Z,15.43
2024-01-25T17:27:30.738Z,16.00
2024-01-25T17:29:58.887Z,16.87
2024-01-25T17:32:27.029Z,17.27
2024-01-25T17:34:56.111Z,16.90
2024-01-25T17:37:25.411Z,17.27
2024-01-25T17:39:54.628Z,16.73
2024-01-25T17:42:22.616Z,17.70
2024-01-25T17:44:52.848Z,15.73
2024-01-25T17:47:20.784Z,16.57
2024-01-25T17:49:48.759Z,17.63
2024-01-25T17:52:16.759Z,16.37
2024-01-25T17:54:46.230Z,17.27
2024-01-25T17:57:14.326Z,16.83
2024-01-25T17:59:42.485Z,16.87
2024-01-25T18:02:10.418Z,18.10
2024-01-25T18:04:38.411Z,16.80
2024-01-25T18:07:06.424Z,18.67
2024-01-25T18:09:34.907Z,18.67
2024-01-25T18:12:04.468Z,18.57
2024-01-25T18:14:34.178Z,18.50
2024-01-25T18:17:02.083Z,17.23
2024-01-25T18:19:33.087Z,18.17
2024-01-25T18:22:01.229Z,18.60
2024-01-25T18:24:30.815Z,17.90
2024-01-25T18:26:58.823Z,18.47
2024-01-25T18:29:34.337Z,18.90
2024-01-25T18:32:02.428Z,18.20
2024-01-25T18:34:31.836Z,18.53
2024-01-25T18:36:59.955Z,18.87
2024-01-25T18:39:28.857Z,17.70
2024-01-25T18:41:57.116Z,19.20
2024-01-25T18:44:25.268Z,19.50
2024-01-25T18:46:54.518Z,20.10
2024-01-25T18:49:22.597Z,18.47
2024-01-25T18:51:51.114Z,18.87
2024-01-25T18:54:20.379Z,19.30
2024-01-25T18:56:51.582Z,21.10
2024-01-25T18:59:20.117Z,20.03
2024-01-25T19:01:48.554Z,21.00
2024-01-25T19:04:19.397Z,21.13
2024-01-25T19:06:54.118Z,19.63
2024-01-25T19:09:22.753Z,21.27
2024-01-25T19:11:50.962Z,20.20
2024-01-25T19:14:19.422Z,19.53
2024-01-25T19:16:48.992Z,19.47
2024-01-25T19:19:19.803Z,19.03
2024-01-25T19:21:49.961Z,18.57
2024-01-25T19:24:19.758Z,18.73
2024-01-25T19:26:47.786Z,17.70
2024-01-25T19:29:15.830Z,17.03
2024-01-25T19:31:44.542Z,17.27
2024-01-25T19:34:12.508Z,16.73
2024-01-25T19:36:44.346Z,18.93
2024-01-25T19:39:12.357Z,18.00
2024-01-25T19:41:40.343Z,17.57
2024-01-25T19:44:08.352Z,18.73
2024-01-25T19:46:37.142Z,18.53
2024-01-25T19:49:06.519Z,19.00
2024-01-25T19:51:34.586Z,19.43
2024-01-25T19:54:04.025Z,19.60
2024-01-25T19:56:33.347Z,19.93
2024-01-25T19:59:02.538Z,19.27
2024-01-25T20:01:31.827Z,18.77
2024-01-25T20:04:00.346Z,18.00
2024-01-25T20:06:31.862Z,18.77
2024-01-25T20:08:59.871Z,19.10
2024-01-25T20:11:30.316Z,19.30
2024-01-25T20:13:58.332Z,19.70
2024-01-25T20:16:26.529Z,17.33
2024-01-25T20:18:54.696Z,18.43
2024-01-25T20:21:22.710Z,17.63
2024-01-25T20:23:50.903Z,18.70
2024-01-25T20:26:20.823Z,17.53
2024-01-25T20:28:53.026Z,18.60
2024-01-25T20:31:21.560Z,17.60
2024-01-25T20:33:51.513Z,17.70
2024-01-25T20:36:19.790Z,18.47
2024-01-25T20:38:47.718Z,19.17
2024-01-25T20:41:15.639Z,17.63
2024-01-25T20:43:45.087Z,18.13
2024-01-25T20:46:15.254Z,19.10
2024-01-25T20:48:43.544Z,19.33
2024-01-25T20:51:12.510Z,19.63
2024-01-25T20:53:45.609Z,19.10
2024-01-25T20:56:19.068Z,19.07
2024-01-25T20:58:47.522Z,18.27
2024-01-25T21:01:17.554Z,18.93
2024-01-25T21:03:46.030Z,17.93
2024-01-25T21:06:15.264Z,18.50
2024-01-25T21:08:43.840Z,18.33
2024-01-25T21:11:13.704Z,17.67
2024-01-25T21:13:43.898Z,18.20
2024-01-25T21:16:11.733Z,17.83
2024-01-25T21:18:41.492Z,17.43
2024-01-25T21:21:14.498Z,17.60
2024-01-25T21:23:42.569Z,18.57
2024-01-25T21:26:10.512Z,19.63
2024-01-25T21:28:38.699Z,18.87
2024-01-25T21:31:06.823Z,17.93
2024-01-25T21:33:34.907Z,18.03
2024-01-25T21:36:04.543Z,18.70
2024-01-25T21:38:33.772Z,18.67
2024-01-25T21:41:02.046Z,20.27
2024-01-25T21:43:30.702Z,18.67
2024-01-25T21:45:58.706Z,19.73
2024-01-25T21:48:26.844Z,19.60
2024-01-25T21:50:54.831Z,19.83
2024-01-25T21:53:24.213Z,20.50
2024-01-25T21:55:52.482Z,19.53
2024-01-25T21:58:20.580Z,21.37
2024-01-25T22:00:48.665Z,21.67
2024-01-25T22:03:16.705Z,23.50
2024-01-25T22:05:44.955Z,23.17
2024-01-25T22:08:15.432Z,25.03
2024-01-25T22:10:44.796Z,24.57
2024-01-25T22:13:12.656Z,26.00
2024-01-25T22:15:40.993Z,22.20
2024-01-25T22:18:09.282Z,21.40
2024-01-25T22:20:37.230Z,20.97
2024-01-25T22:23:06.775Z,20.97
2024-01-25T22:25:34.714Z,21.33
2024-01-25T22:28:04.400Z,21.13
2024-01-25T22:30:35.236Z,21.40
2024-01-25T22:33:03.449Z,21.70
2024-01-25T22:35:34.018Z,21.03
2024-01-25T22:38:02.048Z,21.27
2024-01-25T22:40:31.841Z,22.77
2024-01-25T22:43:00.047Z,20.03
2024-01-25T22:45:30.478Z,21.00
2024-01-25T22:47:58.525Z,20.43
2024-01-25T22:50:26.456Z,22.17
2024-01-25T22:52:54.402Z,21.10
2024-01-25T22:55:22.353Z,20.40
2024-01-25T22:57:50.901Z,20.57
2024-01-25T23:00:22.765Z,20.27
2024-01-25T23:02:53.795Z,20.10
2024-01-25T23:05:23.419Z,19.70
2024-01-25T23:07:52.290Z,19.63
2024-01-25T23:10:20.910Z,19.90
2024-01-25T23:12:51.562Z,19.63
2024-01-25T23:15:19.945Z,19.17
2024-01-25T23:17:50.088Z,20.03
2024-01-25T23:20:19.420Z,20.87
2024-01-25T23:22:47.455Z,18.93
2024-01-25T23:25:16.699Z,19.90
2024-01-25T23:27:45.267Z,20.33
2024-01-25T23:30:13.503Z,19.60
2024-01-25T23:32:41.477Z,18.93
2024-01-25T23:35:10.265Z,18.23
2024-01-25T23:37:39.607Z,20.23
2024-01-25T23:40:09.033Z,19.53
2024-01-25T23:42:37.549Z,18.97
2024-01-25T23:45:07.895Z,19.63
2024-01-25T23:47:36.091Z,20.03
2024-01-25T23:50:04.283Z,18.97
2024-01-25T23:52:33.280Z,19.63
2024-01-25T23:55:02.669Z,18.50
2024-01-25T23:57:31.567Z,18.50
2024-01-25T23:59:59.737Z,18.67
